createdAt,value
2023-01-25T00:00:55.979Z,102619.84
2023-01-25T00:05:00.891Z,102644.84
2023-01-25T00:09:03.570Z,102642.28
2023-01-25T00:13:05.865Z,102636.91
2023-01-25T00:17:07.775Z,102635.00
2023-01-25T00:21:27.991Z,102630.63
2023-01-25T00:25:29.987Z,102623.16
2023-01-25T00:29:31.965Z,102621.25
2023-01-25T00:34:06.178Z,102631.00
2023-01-25T00:38:28.963Z,102657.00
2023-01-25T00:42:31.028Z,102684.44
2023-01-25T00:46:33.152Z,102713.59
2023-01-25T00:50:37.665Z,102696.44
2023-01-25T00:54:41.015Z,102691.34
2023-01-25T00:58:43.537Z,102680.06
2023-01-25T01:02:46.452Z,102684.09
2023-01-25T01:06:49.713Z,102681.72
2023-01-25T01:10:51.661Z,102686.00
2023-01-25T01:14:53.701Z,102694.03
2023-01-25T01:18:55.649Z,102697.41
2023-01-25T01:22:57.923Z,102699.00
2023-01-25T01:26:59.841Z,102693.00
2023-01-25T01:31:03.447Z,102695.34
2023-01-25T01:35:09.844Z,102695.69
2023-01-25T01:39:12.421Z,102691.41
2023-01-25T01:43:23.356Z,102680.13
2023-01-25T01:47:39.107Z,102685.25
2023-01-25T01:51:55.813Z,102674.91
2023-01-25T01:56:05.563Z,102674.75
2023-01-25T02:00:08.076Z,102670.38
2023-01-25T02:04:21.326Z,102673.00
2023-01-25T02:08:24.791Z,102673.47
2023-01-25T02:12:27.946Z,102652.34
2023-01-25T02:16:30.181Z,102635.84
2023-01-25T02:20:37.538Z,102645.88
2023-01-25T02:24:47.287Z,102648.47
2023-01-25T02:28:58.398Z,102646.72
2023-01-25T02:33:00.855Z,102652.91
2023-01-25T02:37:02.957Z,102650.53
2023-01-25T02:41:18.154Z,102636.56
2023-01-25T02:45:25.355Z,102631.59
2023-01-25T02:49:27.983Z,102638.66
2023-01-25T02:53:29.950Z,102637.22
2023-01-25T02:57:31.647Z,102637.03
2023-01-25T03:01:38.391Z,102646.59
2023-01-25T03:05:41.745Z,102638.16
2023-01-25T03:09:43.691Z,102622.34
2023-01-25T03:13:45.644Z,102612.84
2023-01-25T03:17:47.890Z,102606.59
2023-01-25T03:21:49.915Z,102603.19
2023-01-25T03:25:52.880Z,102609.34
2023-01-25T03:29:54.751Z,102594.34
2023-01-25T03:34:00.139Z,102583.22
2023-01-25T03:38:07.476Z,102579.66
2023-01-25T03:42:09.459Z,102590.88
2023-01-25T03:46:11.488Z,102581.44
2023-01-25T03:50:14.008Z,102576.81
2023-01-25T03:54:16.967Z,102592.34
2023-01-25T03:58:19.206Z,102598.41
2023-01-25T04:02:21.024Z,102591.19
2023-01-25T04:06:23.325Z,102587.66
2023-01-25T04:10:26.002Z,102573.91
2023-01-25T04:14:43.569Z,102566.97
2023-01-25T04:18:48.316Z,102563.13
2023-01-25T04:22:50.922Z,102572.25
2023-01-25T04:26:54.842Z,102578.47
2023-01-25T04:30:58.147Z,102574.22
2023-01-25T04:35:06.673Z,102573.91
2023-01-25T04:39:08.879Z,102566.81
2023-01-25T04:43:18.610Z,102566.09
2023-01-25T04:47:21.167Z,102550.66
2023-01-25T04:51:23.500Z,102542.19
2023-01-25T04:55:26.119Z,102540.28
2023-01-25T04:59:30.157Z,102536.81
2023-01-25T05:03:32.130Z,102532.03
2023-01-25T05:07:34.319Z,102530.13
2023-01-25T05:11:36.504Z,102529.41
2023-01-25T05:15:57.453Z,102550.91
2023-01-25T05:19:59.880Z,102542.53
2023-01-25T05:24:01.608Z,102539.06
2023-01-25T05:28:06.873Z,102536.41
2023-01-25T05:32:40.888Z,102544.41
2023-01-25T05:36:43.121Z,102534.78
2023-01-25T05:40:44.893Z,102532.09
2023-01-25T05:44:48.154Z,102515.53
2023-01-25T05:48:51.294Z,102514.66
2023-01-25T05:52:54.028Z,102519.66
2023-01-25T05:56:56.238Z,102515.97
2023-01-25T06:01:02.809Z,102507.56
2023-01-25T06:05:14.930Z,102504.41
2023-01-25T06:09:17.410Z,102498.31
2023-01-25T06:13:22.353Z,102480.91
2023-01-25T06:17:24.322Z,102497.50
2023-01-25T06:21:33.337Z,102485.31
2023-01-25T06:25:35.255Z,102500.84
2023-01-25T06:29:37.202Z,102499.06
2023-01-25T06:33:40.659Z,102505.28
2023-01-25T06:37:42.851Z,102508.56
2023-01-25T06:41:44.773Z,102505.97
2023-01-25T06:45:46.741Z,102488.53
2023-01-25T06:49:48.761Z,102496.31
2023-01-25T06:53:50.847Z,102498.91
2023-01-25T06:57:52.807Z,102488.03
2023-01-25T07:01:54.816Z,102489.50
2023-01-25T07:06:01.911Z,102483.47
2023-01-25T07:10:04.347Z,102468.09
2023-01-25T07:14:06.649Z,102471.41
2023-01-25T07:18:16.152Z,102472.63
2023-01-25T07:22:18.724Z,102467.41
2023-01-25T07:26:25.688Z,102473.41
2023-01-25T07:30:27.604Z,102464.75
2023-01-25T07:34:29.576Z,102467.28
2023-01-25T07:38:31.614Z,102468.22
2023-01-25T07:42:33.381Z,102470.03
2023-01-25T07:46:47.342Z,102476.69
2023-01-25T07:51:09.229Z,102475.88
2023-01-25T07:55:11.342Z,102469.91
2023-01-25T07:59:14.272Z,102470.56
2023-01-25T08:03:16.198Z,102481.25
2023-01-25T08:07:18.241Z,102468.25
2023-01-25T08:11:23.159Z,102480.25
2023-01-25T08:15:24.868Z,102469.13
2023-01-25T08:19:26.984Z,102475.06
2023-01-25T08:23:29.506Z,102462.59
2023-01-25T08:27:31.609Z,102464.72
2023-01-25T08:31:35.277Z,102467.16
2023-01-25T08:35:37.304Z,102449.81
2023-01-25T08:39:39.306Z,102435.44
2023-01-25T08:43:42.460Z,102434.38
2023-01-25T08:47:44.199Z,102440.44
2023-01-25T08:51:47.295Z,102437.34
2023-01-25T08:55:49.338Z,102446.13
2023-01-25T08:59:51.118Z,102444.22
2023-01-25T09:03:54.168Z,102443.84
2023-01-25T09:07:56.160Z,102436.16
2023-01-25T09:11:58.202Z,102435.19
2023-01-25T09:16:06.360Z,102431.66
2023-01-25T09:20:09.511Z,102424.94
2023-01-25T09:24:12.013Z,102417.22
2023-01-25T09:28:13.985Z,102421.44
2023-01-25T09:32:15.914Z,102414.72
2023-01-25T09:36:27.498Z,102405.94
2023-01-25T09:40:38.924Z,102400.19
2023-01-25T09:44:53.118Z,102389.69
2023-01-25T09:49:36.681Z,102384.59
2023-01-25T09:53:47.490Z,102389.13
2023-01-25T09:57:53.833Z,102379.63
2023-01-25T10:02:13.186Z,102382.19
2023-01-25T10:06:17.080Z,102381.56
2023-01-25T10:10:38.898Z,102382.41
2023-01-25T10:14:40.930Z,102374.66
2023-01-25T10:18:55.719Z,102362.53
2023-01-25T10:23:07.955Z,102362.66
2023-01-25T10:27:34.008Z,102352.41
2023-01-25T10:31:46.522Z,102344.66
2023-01-25T10:35:49.969Z,102348.03
2023-01-25T10:40:04.093Z,102333.28
2023-01-25T10:44:24.831Z,102319.47
2023-01-25T10:48:31.139Z,102325.78
2023-01-25T10:52:35.516Z,102322.28
2023-01-25T10:56:40.289Z,102313.63
2023-01-25T11:00:42.593Z,102321.38
2023-01-25T11:04:47.723Z,102325.47
2023-01-25T11:08:51.058Z,102312.50
2023-01-25T11:13:21.443Z,102301.38
2023-01-25T11:17:31.469Z,102283.03
2023-01-25T11:21:34.835Z,102272.81
2023-01-25T11:25:36.638Z,102276.50
2023-01-25T11:29:38.899Z,102261.84
2023-01-25T11:33:41.976Z,102258.56
2023-01-25T11:38:17.995Z,102260.25
2023-01-25T11:42:47.236Z,102266.38
2023-01-25T11:47:07.174Z,102259.56
2023-01-25T11:51:27.382Z,102247.25
2023-01-25T11:55:32.953Z,102235.91
2023-01-25T11:59:57.173Z,102242.97
2023-01-25T12:04:36.734Z,102220.59
2023-01-25T12:08:41.985Z,102215.44
2023-01-25T12:12:56.589Z,102207.31
2023-01-25T12:17:42.774Z,102210.91
2023-01-25T12:22:28.761Z,102199.00
2023-01-25T12:27:12.292Z,102200.00
2023-01-25T12:31:22.142Z,102188.56
2023-01-25T12:35:37.479Z,102193.88
2023-01-25T12:39:47.700Z,102191.44
2023-01-25T12:44:06.398Z,102181.03
2023-01-25T12:48:31.155Z,102186.13
2023-01-25T12:52:36.357Z,102195.59
2023-01-25T12:56:58.312Z,102187.75
2023-01-25T13:01:03.151Z,102172.97
2023-01-25T13:05:33.837Z,102177.38
2023-01-25T13:10:00.226Z,102164.53
2023-01-25T13:14:17.692Z,102160.09
2023-01-25T13:18:28.915Z,102156.81
2023-01-25T13:22:45.746Z,102142.84
2023-01-25T13:26:50.486Z,102145.47
2023-01-25T13:30:53.571Z,102140.41
2023-01-25T13:34:57.378Z,102148.09
2023-01-25T13:38:59.323Z,102132.53
2023-01-25T13:43:13.176Z,102139.38
2023-01-25T13:47:22.109Z,102134.16
2023-01-25T13:51:28.274Z,102122.16
2023-01-25T13:55:40.516Z,102115.25
2023-01-25T13:59:42.535Z,102108.44
2023-01-25T14:03:47.480Z,102100.72
2023-01-25T14:07:53.483Z,102099.78
2023-01-25T14:11:58.568Z,102090.03
2023-01-25T14:16:04.360Z,102084.97
2023-01-25T14:20:21.031Z,102086.81
2023-01-25T14:24:23.484Z,102084.28
2023-01-25T14:28:26.634Z,102078.00
2023-01-25T14:32:29.859Z,102071.25
2023-01-25T14:36:35.075Z,102062.59
2023-01-25T14:40:37.420Z,102055.63
2023-01-25T14:44:39.992Z,102046.09
2023-01-25T14:48:42.370Z,102040.88
2023-01-25T14:52:44.247Z,102030.63
2023-01-25T14:56:49.962Z,102026.34
2023-01-25T15:00:57.653Z,102019.34
2023-01-25T15:05:14.651Z,102009.91
2023-01-25T15:09:34.507Z,102014.28
2023-01-25T15:13:36.557Z,101997.78
2023-01-25T15:17:50.766Z,101997.78
2023-01-25T15:21:55.581Z,101992.69
2023-01-25T15:25:59.965Z,101976.19
2023-01-25T15:30:01.803Z,101972.81
2023-01-25T15:34:04.905Z,101978.03
2023-01-25T15:38:12.536Z,101964.13
2023-01-25T15:42:14.161Z,101963.38
2023-01-25T15:46:25.481Z,101950.47
2023-01-25T15:50:29.134Z,101948.72
2023-01-25T15:54:31.328Z,101948.72
2023-01-25T15:58:36.460Z,101946.13
2023-01-25T16:02:38.194Z,101934.91
2023-01-25T16:06:45.902Z,101922.84
2023-01-25T16:10:48.131Z,101927.13
2023-01-25T16:14:49.707Z,101916.81
2023-01-25T16:18:51.802Z,101915.97
2023-01-25T16:22:53.783Z,101909.84
2023-01-25T16:26:58.482Z,101915.16
2023-01-25T16:31:00.734Z,101921.19
2023-01-25T16:35:02.818Z,101912.47
2023-01-25T16:39:25.359Z,101911.72
2023-01-25T16:43:37.986Z,101883.19
2023-01-25T16:47:44.194Z,101875.28
2023-01-25T16:51:46.310Z,101860.63
2023-01-25T16:55:49.472Z,101864.13
2023-01-25T16:59:51.491Z,101861.53
2023-01-25T17:03:54.894Z,101850.44
2023-01-25T17:07:56.583Z,101863.34
2023-01-25T17:11:58.584Z,101853.91
2023-01-25T17:16:03.453Z,101853.94
2023-01-25T17:20:05.977Z,101848.69
2023-01-25T17:24:08.728Z,101832.31
2023-01-25T17:28:10.722Z,101841.84
2023-01-25T17:32:12.666Z,101836.63
2023-01-25T17:36:15.331Z,101833.16
2023-01-25T17:40:17.115Z,101834.91
2023-01-25T17:44:21.405Z,101834.88
2023-01-25T17:48:23.493Z,101823.66
2023-01-25T17:52:25.537Z,101816.81
2023-01-25T17:56:27.651Z,101809.84
2023-01-25T18:00:29.772Z,101801.25
2023-01-25T18:04:33.672Z,101806.44
2023-01-25T18:08:46.559Z,101803.91
2023-01-25T18:13:03.760Z,101799.63
2023-01-25T18:17:07.280Z,101796.13
2023-01-25T18:21:14.918Z,101810.84
2023-01-25T18:25:34.595Z,101816.84
2023-01-25T18:29:39.352Z,101810.78
2023-01-25T18:33:41.450Z,101803.91
2023-01-25T18:37:45.818Z,101804.75
2023-01-25T18:41:49.903Z,101801.28
2023-01-25T18:45:56.634Z,101809.94
2023-01-25T18:49:58.869Z,101808.22
2023-01-25T18:54:01.283Z,101806.47
2023-01-25T18:58:04.587Z,101810.81
2023-01-25T19:02:07.956Z,101809.97
2023-01-25T19:06:10.661Z,101794.44
2023-01-25T19:10:16.688Z,101788.34
2023-01-25T19:14:24.579Z,101792.72
2023-01-25T19:18:30.776Z,101784.09
2023-01-25T19:22:32.659Z,101778.91
2023-01-25T19:26:34.638Z,101763.34
2023-01-25T19:30:36.679Z,101759.03
2023-01-25T19:34:38.801Z,101759.03
2023-01-25T19:38:41.294Z,101758.13
2023-01-25T19:42:42.989Z,101744.34
2023-01-25T19:46:44.966Z,101732.25
2023-01-25T19:50:46.933Z,101727.13
2023-01-25T19:54:48.924Z,101733.16
2023-01-25T19:58:51.150Z,101723.66
2023-01-25T20:02:52.819Z,101718.47
2023-01-25T20:06:54.954Z,101703.88
2023-01-25T20:11:01.835Z,101700.38
2023-01-25T20:15:03.827Z,101696.97
2023-01-25T20:19:05.983Z,101679.69
2023-01-25T20:23:08.128Z,101683.16
2023-01-25T20:27:09.997Z,101693.53
2023-01-25T20:31:26.942Z,101677.13
2023-01-25T20:35:29.837Z,101679.72
2023-01-25T20:39:31.987Z,101682.31
2023-01-25T20:43:34.689Z,101691.81
2023-01-25T20:47:36.461Z,101683.16
2023-01-25T20:51:38.563Z,101678.88
2023-01-25T20:55:40.712Z,101680.59
2023-01-25T20:59:42.888Z,101675.44
2023-01-25T21:03:46.567Z,101680.59
2023-01-25T21:07:48.486Z,101671.97
2023-01-25T21:11:50.634Z,101669.38
2023-01-25T21:16:14.958Z,101673.72
2023-01-25T21:20:17.185Z,101677.16
2023-01-25T21:24:19.163Z,101662.50
2023-01-25T21:28:21.211Z,101657.28
2023-01-25T21:32:23.520Z,101652.13
2023-01-25T21:36:25.990Z,101653.00
2023-01-25T21:40:28.996Z,101647.84
2023-01-25T21:44:49.372Z,101644.34
2023-01-25T21:49:29.300Z,101645.25
2023-01-25T21:53:31.226Z,101646.94
2023-01-25T21:57:33.379Z,101652.09
2023-01-25T22:01:35.324Z,101651.25
2023-01-25T22:05:37.037Z,101654.69
2023-01-25T22:09:39.123Z,101654.69
2023-01-25T22:13:41.514Z,101647.81
2023-01-25T22:17:43.822Z,101644.34
2023-01-25T22:21:46.280Z,101627.97
2023-01-25T22:25:49.588Z,101631.41
2023-01-25T22:29:51.654Z,101630.56
2023-01-25T22:33:54.887Z,101621.03
2023-01-25T22:37:56.903Z,101609.03
2023-01-25T22:41:58.881Z,101611.59
2023-01-25T22:46:01.369Z,101605.50
2023-01-25T22:50:03.217Z,101601.22
2023-01-25T22:54:05.610Z,101601.22
2023-01-25T22:58:08.402Z,101578.75
2023-01-25T23:02:10.500Z,101579.66
2023-01-25T23:06:15.106Z,101575.38
2023-01-25T23:10:17.801Z,101578.78
2023-01-25T23:14:38.422Z,101558.13
2023-01-25T23:18:52.679Z,101551.19
2023-01-25T23:22:54.693Z,101552.06
2023-01-25T23:26:56.742Z,101544.31
2023-01-25T23:31:17.233Z,101536.50
2023-01-25T23:35:19.954Z,101526.16
2023-01-25T23:39:23.658Z,101531.31
2023-01-25T23:43:25.707Z,101518.41
2023-01-25T23:47:30.800Z,101519.22
2023-01-25T23:51:33.054Z,101502.84
2023-01-25T23:55:35.071Z,101501.06
2023-01-25T23:59:37.583Z,101501.03
